createdAt,value
2019-04-14T00:01:30.531Z,101027.86
2019-04-14T00:04:18.688Z,101029.95
2019-04-14T00:07:05.847Z,101035.92
2019-04-14T00:09:52.053Z,101031.28
2019-04-14T00:12:38.437Z,101032.45
2019-04-14T00:15:32.985Z,101027.33
2019-04-14T00:18:12.524Z,101026.28
2019-04-14T00:20:58.492Z,101028.55
2019-04-14T00:23:45.615Z,101024.08
2019-04-14T00:26:33.500Z,101028.84
2019-04-14T00:29:19.696Z,101032.52
2019-04-14T00:32:05.313Z,101029.31
2019-04-14T00:35:19.464Z,101024.02
2019-04-14T00:38:21.884Z,101026.39
2019-04-14T00:41:18.140Z,101018.97
2019-04-14T00:44:23.393Z,101017.39
2019-04-14T00:47:18.044Z,101011.25
2019-04-14T00:50:07.970Z,101011.84
2019-04-14T00:52:54.535Z,101010.08
2019-04-14T00:55:42.619Z,101016.83
2019-04-14T00:58:30.239Z,101019.27
2019-04-14T01:01:16.139Z,101016.98
2019-04-14T01:04:03.553Z,101015.30
2019-04-14T01:06:49.115Z,101013.98
2019-04-14T01:09:35.268Z,101013.77
2019-04-14T01:12:23.593Z,101012.63
2019-04-14T01:15:09.788Z,101013.88
2019-04-14T01:17:57.100Z,101013.58
2019-04-14T01:20:45.063Z,101010.50
2019-04-14T01:23:31.165Z,101014.05
2019-04-14T01:26:16.753Z,101011.54
2019-04-14T01:29:03.684Z,101012.89
2019-04-14T01:31:51.454Z,101009.74
2019-04-14T01:34:37.337Z,101014.78
2019-04-14T01:37:24.693Z,101016.42
2019-04-14T01:42:50.620Z,101012.41
2019-04-14T01:45:38.193Z,101007.52
2019-04-14T01:48:25.745Z,101009.31
2019-04-14T01:51:22.446Z,101011.69
2019-04-14T01:54:34.501Z,101003.30
2019-04-14T01:57:41.485Z,101010.50
2019-04-14T02:00:49.334Z,101008.88
2019-04-14T02:03:35.269Z,101012.52
2019-04-14T02:06:22.332Z,101018.39
2019-04-14T02:09:10.489Z,101015.30
2019-04-14T02:11:55.965Z,101025.73
2019-04-14T02:14:43.038Z,101024.06
2019-04-14T02:17:30.626Z,101030.63
2019-04-14T02:20:17.010Z,101032.29
2019-04-14T02:23:04.047Z,101029.90
2019-04-14T02:25:51.323Z,101027.14
2019-04-14T02:28:37.653Z,101025.64
2019-04-14T02:31:43.692Z,101023.84
2019-04-14T02:40:21.781Z,101028.36
2019-04-14T02:45:53.953Z,101031.30
2019-04-14T02:48:45.794Z,101030.28
2019-04-14T02:51:26.876Z,101032.23
2019-04-14T02:54:13.521Z,101035.00
2019-04-14T02:57:03.554Z,101033.67
2019-04-14T02:59:51.234Z,101033.52
2019-04-14T03:05:26.947Z,101042.66
2019-04-14T03:08:21.506Z,101038.83
2019-04-14T03:11:03.760Z,101040.98
2019-04-14T03:23:05.013Z,101044.28
2019-04-14T03:25:57.638Z,101035.88
2019-04-14T03:28:51.604Z,101040.70
2019-04-14T03:34:55.893Z,101049.78
2019-04-14T03:37:39.212Z,101052.34
2019-04-14T03:39:57.300Z,101054.76
2019-04-14T03:42:55.592Z,101056.05
2019-04-14T03:51:22.122Z,101044.95
2019-04-14T03:54:01.321Z,101040.20
2019-04-14T03:56:48.962Z,101044.36
2019-04-14T03:59:34.766Z,101043.62
2019-04-14T04:02:20.976Z,101046.23
2019-04-14T04:05:07.007Z,101045.42
2019-04-14T04:07:53.851Z,101046.52
2019-04-14T04:10:40.082Z,101055.70
2019-04-14T04:13:26.209Z,101054.83
2019-04-14T04:16:31.581Z,101054.81
2019-04-14T04:19:40.556Z,101054.91
2019-04-14T04:22:41.658Z,101054.02
2019-04-14T04:25:44.488Z,101060.03
2019-04-14T04:28:50.267Z,101059.30
2019-04-14T04:31:54.772Z,101064.22
2019-04-14T04:35:08.755Z,101060.80
2019-04-14T04:38:09.472Z,101065.89
2019-04-14T04:40:55.559Z,101067.77
2019-04-14T04:43:40.966Z,101074.67
2019-04-14T04:46:27.134Z,101067.36
2019-04-14T04:49:20.350Z,101076.16
2019-04-14T04:52:00.217Z,101079.88
2019-04-14T04:54:47.396Z,101079.84
2019-04-14T04:57:33.663Z,101087.72
2019-04-14T05:00:19.972Z,101073.41
2019-04-14T05:03:06.371Z,101089.66
2019-04-14T05:06:11.321Z,101086.50
2019-04-14T05:09:05.983Z,101092.91
2019-04-14T05:12:15.337Z,101089.31
2019-04-14T05:15:11.844Z,101091.05
2019-04-14T05:17:58.042Z,101094.14
2019-04-14T05:20:44.379Z,101094.60
2019-04-14T05:23:32.119Z,101098.12
2019-04-14T05:26:19.890Z,101107.58
2019-04-14T05:29:08.336Z,101105.36
2019-04-14T05:31:55.515Z,101102.92
2019-04-14T05:34:41.270Z,101107.21
2019-04-14T05:37:26.905Z,101105.22
2019-04-14T05:40:14.456Z,101109.44
2019-04-14T05:43:00.860Z,101108.34
2019-04-14T05:45:48.014Z,101110.48
2019-04-14T05:48:35.755Z,101110.48
2019-04-14T05:51:23.219Z,101110.13
2019-04-14T05:54:12.139Z,101117.80
2019-04-14T05:56:58.310Z,101123.99
2019-04-14T05:59:44.238Z,101120.07
2019-04-14T06:02:31.021Z,101124.21
2019-04-14T06:05:18.993Z,101128.64
2019-04-14T06:08:04.887Z,101124.48
2019-04-14T06:10:50.452Z,101132.73
2019-04-14T06:13:36.433Z,101140.51
2019-04-14T06:16:21.986Z,101131.94
2019-04-14T06:19:07.780Z,101138.03
2019-04-14T06:21:54.079Z,101134.84
2019-04-14T06:24:39.559Z,101131.39
2019-04-14T06:27:25.974Z,101131.39
2019-04-14T06:30:44.339Z,101139.72
2019-04-14T06:33:36.218Z,101139.45
2019-04-14T06:36:35.742Z,101149.05
2019-04-14T06:39:27.415Z,101149.05
2019-04-14T06:42:13.946Z,101147.22
2019-04-14T06:44:59.634Z,101152.77
2019-04-14T06:47:45.762Z,101152.77
2019-04-14T06:50:31.734Z,101161.58
2019-04-14T06:53:17.438Z,101160.31
2019-04-14T06:56:05.446Z,101166.91
2019-04-14T06:58:51.643Z,101164.30
2019-04-14T07:01:38.996Z,101164.94
2019-04-14T07:04:25.187Z,101170.55
2019-04-14T07:07:11.104Z,101171.11
2019-04-14T07:09:56.756Z,101161.31
2019-04-14T07:12:43.307Z,101167.83
2019-04-14T07:15:29.796Z,101166.83
2019-04-14T07:18:15.637Z,101169.09
2019-04-14T07:21:05.634Z,101172.70
2019-04-14T07:23:52.138Z,101174.50
2019-04-14T07:26:37.826Z,101172.84
2019-04-14T07:29:26.511Z,101173.77
2019-04-14T07:32:30.627Z,101169.42
2019-04-14T07:35:34.551Z,101167.56
2019-04-14T07:38:28.982Z,101160.52
2019-04-14T07:41:22.278Z,101162.59
2019-04-14T07:44:40.552Z,101167.42
2019-04-14T07:47:46.156Z,101166.14
2019-04-14T07:50:46.728Z,101172.00
2019-04-14T07:53:53.952Z,101173.70
2019-04-14T07:56:58.423Z,101177.27
2019-04-14T07:59:50.523Z,101172.14
2019-04-14T08:02:41.623Z,101168.48
2019-04-14T08:05:30.888Z,101172.41
2019-04-14T08:08:16.540Z,101177.01
2019-04-14T08:11:02.493Z,101176.87
2019-04-14T08:13:48.234Z,101179.27
2019-04-14T08:16:33.959Z,101182.42
2019-04-14T08:19:19.869Z,101180.47
2019-04-14T08:22:06.111Z,101176.00
2019-04-14T08:24:52.732Z,101180.85
2019-04-14T08:27:38.987Z,101179.77
2019-04-14T08:30:26.037Z,101174.34
2019-04-14T08:33:11.594Z,101186.43
2019-04-14T08:35:57.385Z,101175.72
2019-04-14T08:38:43.612Z,101181.39
2019-04-14T08:41:36.742Z,101179.63
2019-04-14T08:44:47.757Z,101184.75
2019-04-14T08:47:44.012Z,101176.39
2019-04-14T08:51:01.240Z,101180.27
2019-04-14T08:53:51.896Z,101179.05
2019-04-14T08:56:47.912Z,101179.67
2019-04-14T08:59:56.460Z,101177.38
2019-04-14T09:03:00.206Z,101175.13
2019-04-14T09:05:56.748Z,101178.48
2019-04-14T09:09:09.909Z,101175.08
2019-04-14T09:11:59.969Z,101169.94
2019-04-14T09:14:56.278Z,101170.62
2019-04-14T09:17:33.717Z,101169.29
2019-04-14T09:20:19.653Z,101167.60
2019-04-14T09:23:05.634Z,101167.50
2019-04-14T09:25:51.245Z,101170.39
2019-04-14T09:28:37.645Z,101177.51
2019-04-14T09:31:24.651Z,101167.69
2019-04-14T09:34:11.995Z,101169.58
2019-04-14T09:36:57.977Z,101177.58
2019-04-14T09:39:43.870Z,101171.64
2019-04-14T09:42:29.549Z,101179.87
2019-04-14T09:45:15.076Z,101175.31
2019-04-14T09:48:01.566Z,101176.58
2019-04-14T09:50:47.146Z,101170.80
2019-04-14T09:53:33.241Z,101173.09
2019-04-14T09:56:19.758Z,101173.27
2019-04-14T09:59:05.511Z,101176.72
2019-04-14T10:01:51.029Z,101176.74
2019-04-14T10:04:36.981Z,101181.22
2019-04-14T10:07:22.466Z,101176.69
2019-04-14T10:10:10.156Z,101178.05
2019-04-14T10:12:56.526Z,101182.00
2019-04-14T10:15:42.417Z,101181.22
2019-04-14T10:18:28.433Z,101178.45
2019-04-14T10:21:17.525Z,101176.41
2019-04-14T10:24:02.625Z,101176.17
2019-04-14T10:26:48.666Z,101178.34
2019-04-14T10:29:34.042Z,101180.95
2019-04-14T10:32:20.429Z,101181.09
2019-04-14T10:35:06.706Z,101177.61
2019-04-14T10:37:52.529Z,101178.58
2019-04-14T10:40:38.407Z,101178.09
2019-04-14T10:43:26.550Z,101173.70
2019-04-14T10:46:12.426Z,101180.83
2019-04-14T10:48:58.482Z,101187.87
2019-04-14T10:51:44.230Z,101178.54
2019-04-14T10:54:30.481Z,101180.73
2019-04-14T10:57:16.571Z,101182.35
2019-04-14T11:00:05.033Z,101188.03
2019-04-14T11:02:50.717Z,101177.62
2019-04-14T11:06:09.024Z,101186.98
2019-04-14T11:08:54.681Z,101186.37
2019-04-14T11:11:40.435Z,101187.16
2019-04-14T11:14:27.672Z,101185.42
2019-04-14T11:17:13.252Z,101183.47
2019-04-14T11:19:58.981Z,101185.22
2019-04-14T11:22:45.428Z,101186.96
2019-04-14T11:25:31.401Z,101189.01
2019-04-14T11:28:26.596Z,101177.92
2019-04-14T11:31:14.432Z,101182.20
2019-04-14T11:34:01.867Z,101174.06
2019-04-14T11:37:06.733Z,101182.30
2019-04-14T11:39:52.157Z,101183.61
2019-04-14T11:42:38.129Z,101187.62
2019-04-14T11:45:27.106Z,101190.53
2019-04-14T11:48:13.108Z,101192.58
2019-04-14T11:50:58.688Z,101197.62
2019-04-14T11:53:53.777Z,101201.55
2019-04-14T11:56:40.191Z,101191.17
2019-04-14T11:59:37.703Z,101193.08
2019-04-14T12:02:41.728Z,101200.48
2019-04-14T12:05:37.484Z,101197.77
2019-04-14T12:08:33.613Z,101201.16
2019-04-14T12:11:19.322Z,101204.58
2019-04-14T12:14:05.301Z,101202.37
2019-04-14T12:16:51.104Z,101201.02
2019-04-14T12:19:36.707Z,101194.19
2019-04-14T12:22:23.629Z,101201.91
2019-04-14T12:25:09.742Z,101203.25
2019-04-14T12:27:55.810Z,101211.06
2019-04-14T12:30:44.323Z,101209.19
2019-04-14T12:33:30.308Z,101209.27
2019-04-14T12:36:16.217Z,101211.91
2019-04-14T12:39:04.662Z,101213.67
2019-04-14T12:41:55.332Z,101213.13
2019-04-14T12:44:59.813Z,101213.20
2019-04-14T12:48:11.546Z,101222.73
2019-04-14T12:51:00.297Z,101224.73
2019-04-14T12:53:46.817Z,101218.66
2019-04-14T12:56:32.929Z,101209.25
2019-04-14T12:59:22.981Z,101212.20
2019-04-14T13:02:13.427Z,101216.66
2019-04-14T13:04:59.144Z,101214.20
2019-04-14T13:07:47.097Z,101218.02
2019-04-14T13:10:33.621Z,101205.14
2019-04-14T13:13:19.553Z,101211.91
2019-04-14T13:16:05.574Z,101216.87
2019-04-14T13:18:51.654Z,101223.03
2019-04-14T13:21:40.340Z,101214.25
2019-04-14T13:24:28.464Z,101219.83
2019-04-14T13:27:14.265Z,101218.85
2019-04-14T13:29:59.765Z,101214.91
2019-04-14T13:32:45.765Z,101211.43
2019-04-14T13:35:31.154Z,101209.55
2019-04-14T13:38:17.114Z,101208.14
2019-04-14T13:41:05.960Z,101203.52
2019-04-14T13:43:51.750Z,101204.10
2019-04-14T13:46:37.714Z,101216.58
2019-04-14T13:49:24.540Z,101204.91
2019-04-14T13:52:10.044Z,101204.17
2019-04-14T13:54:55.730Z,101205.73
2019-04-14T13:57:41.854Z,101204.38
2019-04-14T14:00:28.062Z,101205.56
2019-04-14T14:03:14.261Z,101203.94
2019-04-14T14:06:00.566Z,101203.36
2019-04-14T14:08:46.004Z,101205.67
2019-04-14T14:11:37.395Z,101202.77
2019-04-14T14:14:37.137Z,101202.64
2019-04-14T14:17:32.754Z,101193.30
2019-04-14T14:20:37.994Z,101190.42
2019-04-14T14:23:41.633Z,101192.76
2019-04-14T14:26:28.365Z,101189.37
2019-04-14T14:29:13.970Z,101187.13
2019-04-14T14:32:01.505Z,101190.38
2019-04-14T14:34:47.406Z,101195.93
2019-04-14T14:37:33.052Z,101197.52
2019-04-14T14:40:19.416Z,101194.34
2019-04-14T14:43:05.524Z,101193.27
2019-04-14T14:46:05.691Z,101191.52
2019-04-14T14:49:10.716Z,101185.22
2019-04-14T14:52:07.060Z,101186.98
2019-04-14T14:54:53.098Z,101185.66
2019-04-14T14:57:38.929Z,101196.73
2019-04-14T15:00:30.813Z,101183.41
2019-04-14T15:03:16.496Z,101180.62
2019-04-14T15:06:02.199Z,101182.39
2019-04-14T15:08:49.377Z,101176.81
2019-04-14T15:11:35.153Z,101177.18
2019-04-14T15:14:21.135Z,101168.26
2019-04-14T15:17:08.528Z,101180.69
2019-04-14T15:19:54.610Z,101180.65
2019-04-14T15:22:41.918Z,101189.17
2019-04-14T15:25:28.443Z,101185.42
2019-04-14T15:28:15.747Z,101192.03
2019-04-14T15:31:01.674Z,101189.63
2019-04-14T15:33:47.710Z,101190.08
2019-04-14T15:36:33.522Z,101179.89
2019-04-14T15:39:19.323Z,101181.27
2019-04-14T15:42:05.364Z,101178.18
2019-04-14T15:44:50.934Z,101189.58
2019-04-14T15:47:37.491Z,101186.53
2019-04-14T15:50:23.318Z,101191.36
2019-04-14T15:53:09.111Z,101195.51
2019-04-14T15:55:57.154Z,101200.13
2019-04-14T15:58:51.028Z,101202.69
2019-04-14T16:01:56.774Z,101202.91
2019-04-14T16:05:07.738Z,101194.94
2019-04-14T16:08:08.557Z,101207.30
2019-04-14T16:11:10.624Z,101208.11
2019-04-14T16:14:25.463Z,101210.22
2019-04-14T16:17:31.560Z,101207.98
2019-04-14T16:20:25.264Z,101206.09
2019-04-14T16:23:10.804Z,101209.38
2019-04-14T16:26:15.077Z,101217.54
2019-04-14T16:29:32.115Z,101215.68
2019-04-14T16:32:43.300Z,101217.64
2019-04-14T16:35:29.521Z,101222.63
2019-04-14T16:38:15.159Z,101226.33
2019-04-14T16:41:01.322Z,101227.73
2019-04-14T16:43:48.938Z,101228.79
2019-04-14T16:46:34.724Z,101236.09
2019-04-14T16:49:20.706Z,101233.50
2019-04-14T16:52:32.147Z,101238.14
2019-04-14T16:55:38.215Z,101246.22
2019-04-14T16:58:36.508Z,101245.69
2019-04-14T17:01:32.212Z,101247.86
2019-04-14T17:04:18.192Z,101252.69
2019-04-14T17:07:04.041Z,101264.05
2019-04-14T17:09:50.815Z,101266.14
2019-04-14T17:12:36.308Z,101269.39
2019-04-14T17:15:44.751Z,101276.02
2019-04-14T17:18:45.999Z,101274.15
2019-04-14T17:21:45.152Z,101273.70
2019-04-14T17:24:34.100Z,101273.28
2019-04-14T17:27:46.138Z,101271.51
2019-04-14T17:30:51.682Z,101275.55
2019-04-14T17:33:46.651Z,101274.02
2019-04-14T17:36:38.771Z,101279.96
2019-04-14T17:39:39.863Z,101278.53
2019-04-14T17:42:34.206Z,101287.30
2019-04-14T17:45:32.405Z,101291.17
2019-04-14T17:48:28.135Z,101286.70
2019-04-14T17:51:19.658Z,101290.56
2019-04-14T17:54:29.781Z,101300.21
2019-04-14T17:57:32.119Z,101307.39
2019-04-14T18:00:22.806Z,101309.94
2019-04-14T18:03:35.319Z,101315.41
2019-04-14T18:06:25.191Z,101316.33
2019-04-14T18:09:46.271Z,101326.98
2019-04-14T18:13:06.498Z,101323.23
2019-04-14T18:16:20.880Z,101328.05
2019-04-14T18:19:19.439Z,101324.91
2019-04-14T18:22:05.123Z,101330.95
2019-04-14T18:24:51.213Z,101334.07
2019-04-14T18:27:47.339Z,101335.64
2019-04-14T18:30:38.040Z,101330.12
2019-04-14T18:33:59.059Z,101333.42
2019-04-14T18:37:04.296Z,101343.59
2019-04-14T18:40:04.626Z,101348.12
2019-04-14T18:43:20.928Z,101347.12
2019-04-14T18:46:14.164Z,101357.50
2019-04-14T18:49:14.827Z,101345.30
2019-04-14T18:52:39.260Z,101353.72
2019-04-14T18:55:42.369Z,101350.98
2019-04-14T18:58:55.343Z,101360.86
2019-04-14T19:01:44.620Z,101351.81
2019-04-14T19:04:31.069Z,101357.45
2019-04-14T19:07:20.336Z,101357.78
2019-04-14T19:10:06.932Z,101358.78
2019-04-14T19:12:57.966Z,101361.84
2019-04-14T19:16:00.612Z,101366.03
2019-04-14T19:18:48.942Z,101367.50
2019-04-14T19:21:35.240Z,101366.33
2019-04-14T19:24:20.821Z,101364.70
2019-04-14T19:27:07.021Z,101362.72
2019-04-14T19:29:52.803Z,101356.34
2019-04-14T19:32:38.667Z,101363.88
2019-04-14T19:35:26.912Z,101360.77
2019-04-14T19:38:12.681Z,101362.18
2019-04-14T19:40:58.405Z,101366.83
2019-04-14T19:43:46.345Z,101366.81
2019-04-14T19:46:34.808Z,101372.36
2019-04-14T19:49:20.703Z,101367.16
2019-04-14T19:52:06.473Z,101372.78
2019-04-14T19:54:52.622Z,101363.61
2019-04-14T19:57:38.090Z,101368.14
2019-04-14T20:00:23.680Z,101364.27
2019-04-14T20:03:09.804Z,101360.62
2019-04-14T20:05:55.712Z,101364.56
2019-04-14T20:08:43.968Z,101369.49
2019-04-14T20:11:31.367Z,101373.91
2019-04-14T20:14:16.982Z,101373.11
2019-04-14T20:17:21.274Z,101378.25
2019-04-14T20:20:25.288Z,101378.58
2019-04-14T20:23:24.483Z,101381.70
2019-04-14T20:26:48.090Z,101391.66
2019-04-14T20:29:38.325Z,101394.36
2019-04-14T20:32:27.392Z,101386.75
2019-04-14T20:35:15.119Z,101385.78
2019-04-14T20:38:00.822Z,101391.20
2019-04-14T20:40:47.298Z,101390.33
2019-04-14T20:43:32.832Z,101394.54
2019-04-14T20:46:18.802Z,101395.12
2019-04-14T20:49:07.612Z,101397.25
2019-04-14T20:51:53.733Z,101395.65
2019-04-14T20:54:41.073Z,101392.53
2019-04-14T20:57:27.182Z,101388.95
2019-04-14T21:00:13.593Z,101398.12
2019-04-14T21:03:28.151Z,101397.30
2019-04-14T21:06:28.195Z,101404.64
2019-04-14T21:09:17.931Z,101400.31
2019-04-14T21:12:26.271Z,101404.68
2019-04-14T21:15:27.516Z,101410.32
2019-04-14T21:18:22.417Z,101414.73
2019-04-14T21:21:32.893Z,101420.74
2019-04-14T21:24:54.666Z,101417.65
2019-04-14T21:27:58.553Z,101421.93
2019-04-14T21:31:01.845Z,101426.06
2019-04-14T21:34:10.336Z,101429.32
2019-04-14T21:37:33.393Z,101430.55
2019-04-14T21:40:22.893Z,101424.91
2019-04-14T21:43:09.149Z,101426.80
2019-04-14T21:45:55.532Z,101427.53
2019-04-14T21:48:41.487Z,101426.95
2019-04-14T21:51:47.339Z,101426.81
2019-04-14T21:54:33.307Z,101423.08
2019-04-14T21:57:36.091Z,101422.11
2019-04-14T22:01:00.381Z,101429.95
2019-04-14T22:04:09.001Z,101434.16
2019-04-14T22:06:55.453Z,101437.14
2019-04-14T22:09:42.175Z,101444.59
2019-04-14T22:12:29.764Z,101447.76
2019-04-14T22:15:15.618Z,101444.18
2019-04-14T22:18:01.026Z,101444.64
2019-04-14T22:20:46.994Z,101446.09
2019-04-14T22:23:32.553Z,101451.02
2019-04-14T22:26:25.860Z,101442.65
2019-04-14T22:29:06.620Z,101440.94
2019-04-14T22:31:53.120Z,101433.44
2019-04-14T22:34:39.537Z,101427.33
2019-04-14T22:37:25.325Z,101424.36
2019-04-14T22:40:11.781Z,101419.63
2019-04-14T22:42:58.328Z,101423.27
2019-04-14T22:45:44.637Z,101410.82
2019-04-14T22:48:30.384Z,101410.91
2019-04-14T22:51:16.437Z,101417.07
2019-04-14T22:54:03.053Z,101416.99
2019-04-14T22:56:49.082Z,101419.14
2019-04-14T22:59:35.612Z,101414.62
2019-04-14T23:02:32.421Z,101412.64
2019-04-14T23:05:49.666Z,101408.75
2019-04-14T23:08:44.465Z,101409.98
2019-04-14T23:11:39.390Z,101411.37
2019-04-14T23:14:41.778Z,101401.00
2019-04-14T23:17:41.677Z,101406.19
2019-04-14T23:20:56.666Z,101405.21
2019-04-14T23:24:00.518Z,101403.41
2019-04-14T23:26:52.549Z,101404.36
2019-04-14T23:29:33.627Z,101400.61
2019-04-14T23:32:20.478Z,101404.55
2019-04-14T23:35:06.830Z,101405.05
2019-04-14T23:37:52.788Z,101402.70
2019-04-14T23:40:38.322Z,101410.48
2019-04-14T23:43:24.342Z,101408.49
2019-04-14T23:46:11.150Z,101402.23
2019-04-14T23:48:56.650Z,101396.94
2019-04-14T23:51:42.834Z,101395.30
2019-04-14T23:54:28.808Z,101395.76
2019-04-14T23:57:14.276Z,101398.44
